Little Grand Rapids, Canada
Current Conditions -  °F | °C
As of 12:31 PM on Sunday 21 Dec 2014 (Local Time) from CYRL Reporting Station
Snow Showers Snow Showers  
Wind Chill: 20°   Ceiling: 800
Heat Index: 28°   Visibility: 8mi
Dew Point: 27°   Wind: 8mph
Humidity: 93%   Direction: 160°SSE
Pressure: 29.68"   Gusts: NA
Location:  52.05°N, 95.48°W
Report Text: CYRL 211831Z 16007KT 8SM -SHSN SCT006 OVC008 M02/M03 A2968 RMK SF4SC4 BR CIG RAG SLP073
Loading
Personal Weather Stations






























Interactive Weather Map New forecast layout! Learn more

10-Day Weather Forecast

Advertisements
Track Severe Weather on mobile